Time;durP1;ratioP1;P1;durP2;ratioP2;P2;SDS_P1;SDS_P2;PMS_P1;PMS_P2;Temp;Humidity;BMP_temperature;BMP_pressure;BME280_temperature;BME280_humidity;BME280_pressure;Samples;Min_cycle;Max_cycle;Signal;HPM_P1;HPM_P2
2022/07/13 00:00:31;;;;;;;;;;;;;;;17.96;53.83;98702.72;4982103;28;20354;-76
2022/07/13 00:02:59;;;;;;;;;;;;;;;18.01;54.03;98706.06;4965284;28;20285;-76
2022/07/13 00:05:27;;;;;;;;;;;;;;;17.98;53.84;98711.41;4977942;28;20009;-75
2022/07/13 00:07:55;;;;;;;;;;;;;;;17.95;53.71;98707.41;4978489;28;19925;-75
2022/07/13 00:10:23;;;;;;;;;;;;;;;17.85;54.13;98707.06;5000476;28;20017;-76
2022/07/13 00:12:51;;;;;;;;;;;;;;;17.78;54.41;98708.38;4984684;28;19927;-75
2022/07/13 00:15:21;;;;;;;;;;;;;;;17.86;54.17;98708.66;5001186;28;20335;-76
2022/07/13 00:17:49;;;;;;;;;;;;;;;17.83;54.13;98704.63;4967495;28;19925;-76
2022/07/13 00:20:18;;;;;;;;;;;;;;;17.74;54.46;98701.97;5009556;28;20029;-76
2022/07/13 00:22:46;;;;;;;;;;;;;;;17.74;54.37;98704.72;4979870;28;19988;-75
2022/07/13 00:25:13;;;;;;;;;;;;;;;17.74;54.26;98707.47;4995862;28;19961;-75
2022/07/13 00:27:41;;;;;;;;;;;;;;;17.63;54.78;98700.78;5000429;28;19927;-75
2022/07/13 00:30:09;;;;;;;;;;;;;;;17.61;54.93;98699.50;4978881;28;20361;-75
2022/07/13 00:33:02;;;;;;;;;;;;;;;17.61;54.50;98705.78;5000136;28;19948;-76
2022/07/13 00:35:31;;;;;;;;;;;;;;;17.72;54.47;98697.91;5014348;28;20025;-76
2022/07/13 00:37:59;;;;;;;;;;;;;;;17.64;54.35;98691.38;4987786;28;20249;-75
2022/07/13 00:40:27;;;;;;;;;;;;;;;17.60;54.46;98692.41;4979322;28;20000;-76
2022/07/13 00:42:57;;;;;;;;;;;;;;;17.61;54.25;98691.25;5006367;28;19926;-75
2022/07/13 00:45:25;;;;;;;;;;;;;;;17.68;53.92;98696.97;4984588;28;20024;-75
2022/07/13 00:47:53;;;;;;;;;;;;;;;17.52;54.34;98691.31;4975409;28;20289;-75
2022/07/13 00:50:21;;;;;;;;;;;;;;;17.47;54.49;98692.38;4991630;28;20344;-76
2022/07/13 00:55:43;;;;;;;;;;;;;;;17.37;54.59;98679.03;5008095;28;20390;-76
2022/07/13 00:58:11;;;;;;;;;;;;;;;17.34;54.65;98687.94;4996514;28;19993;-75
2022/07/13 01:00:39;;;;;;;;;;;;;;;17.23;55.03;98682.06;4986671;28;20396;-75
2022/07/13 01:03:07;;;;;;;;;;;;;;;17.24;54.80;98689.16;4974484;28;19930;-76
2022/07/13 01:05:36;;;;;;;;;;;;;;;17.24;55.14;98688.34;5002776;28;19957;-76
2022/07/13 01:08:06;;;;;;;;;;;;;;;17.27;54.89;98682.19;4989619;28;19981;-75
2022/07/13 01:10:34;;;;;;;;;;;;;;;17.26;54.97;98678.66;4987388;28;20020;-75
2022/07/13 01:13:02;;;;;;;;;;;;;;;17.22;55.24;98679.66;5001069;28;19930;-75
2022/07/13 01:15:31;;;;;;;;;;;;;;;17.25;55.09;98679.78;4982679;28;20006;-76
2022/07/13 01:17:59;;;;;;;;;;;;;;;17.11;55.83;98682.00;4972939;28;19933;-75
2022/07/13 01:20:27;;;;;;;;;;;;;;;17.12;55.52;98674.56;4986998;28;19965;-75
2022/07/13 01:23:11;;;;;;;;;;;;;;;17.19;55.67;98681.13;5001441;28;19980;-76
2022/07/13 01:26:07;;;;;;;;;;;;;;;17.22;55.15;98674.97;4989079;28;20076;-76
2022/07/13 01:28:35;;;;;;;;;;;;;;;17.06;55.70;98675.91;5006904;28;19926;-76
2022/07/13 01:31:03;;;;;;;;;;;;;;;17.03;55.68;98682.88;4986210;28;19933;-76
2022/07/13 01:33:33;;;;;;;;;;;;;;;17.09;55.43;98665.03;4991949;28;20364;-75
2022/07/13 01:36:01;;;;;;;;;;;;;;;17.09;55.38;98681.53;4992010;28;20400;-76
2022/07/13 01:38:30;;;;;;;;;;;;;;;17.00;55.48;98678.88;5003247;28;19953;-76
2022/07/13 01:40:59;;;;;;;;;;;;;;;17.05;55.41;98677.06;5007923;28;20013;-76
2022/07/13 01:43:28;;;;;;;;;;;;;;;16.87;55.71;98679.13;4989704;28;20339;-75
2022/07/13 01:45:55;;;;;;;;;;;;;;;16.96;55.28;98679.88;4992767;28;19925;-75
2022/07/13 01:48:23;;;;;;;;;;;;;;;16.87;55.36;98679.13;5006808;28;20025;-75
2022/07/13 01:50:51;;;;;;;;;;;;;;;16.97;55.25;98679.53;4990292;28;20016;-75
2022/07/13 01:53:19;;;;;;;;;;;;;;;16.94;55.26;98680.22;4989816;28;19993;-76
2022/07/13 01:55:49;;;;;;;;;;;;;;;16.84;55.67;98677.84;4977860;28;20341;-75
2022/07/13 01:58:18;;;;;;;;;;;;;;;16.72;55.94;98675.84;4988168;28;19926;-80
2022/07/13 02:00:47;;;;;;;;;;;;;;;16.60;56.24;98678.44;4974051;28;19926;-77
2022/07/13 02:03:15;;;;;;;;;;;;;;;16.61;56.25;98680.06;4974142;28;19976;-76
2022/07/13 02:05:43;;;;;;;;;;;;;;;16.72;55.81;98675.84;4961652;28;19937;-77
2022/07/13 02:08:10;;;;;;;;;;;;;;;16.71;55.87;98674.22;4974328;28;19976;-77
2022/07/13 02:10:39;;;;;;;;;;;;;;;16.57;56.16;98673.66;4974630;28;19934;-77
2022/07/13 02:13:11;;;;;;;;;;;;;;;16.57;56.35;98672.84;4972662;28;20335;-76
2022/07/13 02:15:41;;;;;;;;;;;;;;;16.58;56.38;98677.19;4974611;28;19980;-77
2022/07/13 02:18:15;;;;;;;;;;;;;;;16.59;56.49;98678.78;4987844;28;20395;-77
2022/07/13 02:20:49;;;;;;;;;;;;;;;16.49;56.27;98674.50;4983440;28;19930;-76
2022/07/13 02:23:17;;;;;;;;;;;;;;;16.41;56.63;98675.34;4990507;28;19948;-76
2022/07/13 02:25:45;;;;;;;;;;;;;;;16.40;56.79;98674.53;4993195;28;20017;-76
2022/07/13 02:28:15;;;;;;;;;;;;;;;16.44;56.54;98672.72;4982071;28;19926;-76
2022/07/13 02:30:43;;;;;;;;;;;;;;;16.43;56.43;98668.38;4987667;28;19941;-76
2022/07/13 02:33:13;;;;;;;;;;;;;;;16.47;56.42;98672.09;4984403;28;19933;-76
2022/07/13 02:35:42;;;;;;;;;;;;;;;16.29;56.93;98670.56;4976242;28;19929;-76
2022/07/13 02:38:10;;;;;;;;;;;;;;;16.39;56.39;98658.41;4988248;28;20016;-76
2022/07/13 02:40:38;;;;;;;;;;;;;;;16.37;56.55;98666.16;4972661;28;19953;-76
2022/07/13 02:43:07;;;;;;;;;;;;;;;16.43;56.48;98664.84;4980446;28;19926;-76
2022/07/13 02:45:36;;;;;;;;;;;;;;;16.48;56.30;98668.19;4991475;28;19929;-76
2022/07/13 02:48:04;;;;;;;;;;;;;;;16.28;56.74;98663.47;4955467;28;19926;-76
2022/07/13 02:50:32;;;;;;;;;;;;;;;16.23;56.98;98671.88;4986821;28;19926;-76
2022/07/13 02:53:00;;;;;;;;;;;;;;;16.19;57.35;98660.78;4974802;28;19957;-76
2022/07/13 02:55:28;;;;;;;;;;;;;;;16.35;56.61;98658.28;4992388;28;20012;-77
2022/07/13 02:57:59;;;;;;;;;;;;;;;16.35;56.90;98662.94;4982864;28;19937;-77
2022/07/13 03:00:28;;;;;;;;;;;;;;;16.39;56.50;98663.88;4973545;28;19933;-76
2022/07/13 03:02:58;;;;;;;;;;;;;;;16.45;56.45;98654.34;4973996;28;20575;-75
2022/07/13 03:05:26;;;;;;;;;;;;;;;16.30;56.97;98650.25;4976835;28;19926;-76
2022/07/13 03:07:55;;;;;;;;;;;;;;;16.33;56.69;98638.59;4991891;28;19925;-77
2022/07/13 03:10:24;;;;;;;;;;;;;;;16.45;56.50;98640.63;4994430;28;20040;-76
2022/07/13 03:12:56;;;;;;;;;;;;;;;16.39;56.29;98639.22;4978600;28;19992;-77
2022/07/13 03:15:24;;;;;;;;;;;;;;;16.17;57.29;98645.78;4967879;28;20397;-77
2022/07/13 03:17:52;;;;;;;;;;;;;;;16.10;57.27;98638.09;4980038;28;20288;-76
2022/07/13 03:20:22;;;;;;;;;;;;;;;16.00;57.74;98640.38;4991159;28;19995;-77
2022/07/13 03:22:51;;;;;;;;;;;;;;;15.96;57.84;98642.97;4970442;28;20037;-76
2022/07/13 03:25:20;;;;;;;;;;;;;;;16.11;57.43;98636.94;5004606;28;20379;-76
2022/07/13 03:27:52;;;;;;;;;;;;;;;16.23;56.98;98644.47;4989667;28;19968;-77
2022/07/13 03:30:21;;;;;;;;;;;;;;;16.17;56.94;98643.03;4985095;28;19937;-77
2022/07/13 03:32:49;;;;;;;;;;;;;;;16.12;57.05;98640.47;4987249;28;20005;-76
2022/07/13 03:35:18;;;;;;;;;;;;;;;15.97;57.50;98642.63;4974200;28;19925;-77
2022/07/13 03:37:49;;;;;;;;;;;;;;;15.97;57.78;98647.31;4999094;28;20012;-76
2022/07/13 03:40:21;;;;;;;;;;;;;;;15.88;58.08;98654.78;5004719;28;19930;-76
2022/07/13 03:42:50;;;;;;;;;;;;;;;15.96;57.94;98653.94;4988104;28;19937;-76
2022/07/13 03:45:19;;;;;;;;;;;;;;;15.93;57.87;98654.59;4989226;28;20009;-77
2022/07/13 03:47:47;;;;;;;;;;;;;;;15.92;58.06;98653.78;4989037;28;19932;-77
2022/07/13 03:50:15;;;;;;;;;;;;;;;15.93;57.79;98663.63;4973074;28;19949;-77
2022/07/13 03:52:45;;;;;;;;;;;;;;;16.16;57.27;98664.16;4990667;28;20404;-77
2022/07/13 03:55:15;;;;;;;;;;;;;;;16.20;57.08;98667.06;4979796;28;19941;-77
2022/07/13 03:57:46;;;;;;;;;;;;;;;16.14;57.10;98663.72;4984852;28;20438;-77
2022/07/13 04:00:15;;;;;;;;;;;;;;;16.06;57.78;98659.06;4971832;28;19945;-77
2022/07/13 04:02:52;;;;;;;;;;;;;;;16.04;57.57;98655.06;4979240;28;20025;-77
2022/07/13 04:05:21;;;;;;;;;;;;;;;16.16;57.38;98666.13;4954062;28;19980;-77
2022/07/13 04:07:49;;;;;;;;;;;;;;;16.16;57.31;98653.22;4990279;28;19940;-77
2022/07/13 04:10:19;;;;;;;;;;;;;;;16.07;57.54;98646.94;4983707;28;20020;-77
2022/07/13 04:12:48;;;;;;;;;;;;;;;16.21;57.50;98644.78;4970792;28;19941;-77
2022/07/13 04:15:17;;;;;;;;;;;;;;;16.26;57.10;98653.97;4998604;28;19972;-77
2022/07/13 04:17:45;;;;;;;;;;;;;;;16.31;57.03;98645.56;4985313;28;19926;-76
2022/07/13 04:20:13;;;;;;;;;;;;;;;16.46;56.47;98642.25;5007694;28;19937;-77
2022/07/13 04:22:45;;;;;;;;;;;;;;;16.29;57.00;98642.34;5003538;28;19926;-77
2022/07/13 04:25:14;;;;;;;;;;;;;;;16.21;57.33;98631.09;5006258;28;19929;-77
2022/07/13 04:27:45;;;;;;;;;;;;;;;16.19;57.45;98629.78;4997465;28;19988;-76
2022/07/13 04:30:13;;;;;;;;;;;;;;;16.11;57.81;98628.72;4975664;28;20008;-77
2022/07/13 04:32:42;;;;;;;;;;;;;;;16.28;57.57;98630.56;4983274;28;19977;-78
2022/07/13 04:35:11;;;;;;;;;;;;;;;16.26;57.39;98630.09;4975625;28;19934;-77
2022/07/13 04:37:43;;;;;;;;;;;;;;;16.49;56.62;98617.69;4995742;28;19929;-77
2022/07/13 04:40:12;;;;;;;;;;;;;;;16.55;56.38;98618.28;4988810;28;20003;-78
2022/07/13 04:42:40;;;;;;;;;;;;;;;16.55;56.54;98612.81;5007528;28;19930;-79
2022/07/13 04:45:11;;;;;;;;;;;;;;;16.47;56.57;98613.69;4976128;28;19930;-78
2022/07/13 04:47:39;;;;;;;;;;;;;;;16.44;56.88;98603.38;4991623;28;20411;-78
2022/07/13 04:50:08;;;;;;;;;;;;;;;16.41;57.54;98591.13;4990106;28;20029;-80
2022/07/13 04:52:37;;;;;;;;;;;;;;;16.50;57.19;98596.53;4990325;28;19926;-80
2022/07/13 04:55:07;;;;;;;;;;;;;;;16.54;57.21;98602.97;4972351;28;19932;-79
2022/07/13 04:57:35;;;;;;;;;;;;;;;16.59;56.82;98605.53;5006986;28;19992;-79
2022/07/13 05:00:04;;;;;;;;;;;;;;;16.55;56.92;98612.81;4988018;28;20367;-81
2022/07/13 05:05:30;;;;;;;;;;;;;;;16.71;56.30;98629.50;4989872;28;20332;-79
2022/07/13 05:07:59;;;;;;;;;;;;;;;16.70;56.49;98636.91;4967842;28;19926;-79
2022/07/13 05:10:28;;;;;;;;;;;;;;;16.85;56.10;98632.00;4989753;28;19930;-78
2022/07/13 05:12:57;;;;;;;;;;;;;;;16.85;55.92;98627.31;4971636;28;20049;-86
2022/07/13 05:15:45;;;;;;;;;;;;;;;16.73;56.19;98625.31;4988851;28;19934;-82
2022/07/13 05:18:16;;;;;;;;;;;;;;;17.07;55.31;98622.63;4989945;28;19961;-74
2022/07/13 05:20:44;;;;;;;;;;;;;;;17.10;55.28;98622.75;4983878;28;20338;-86
2022/07/13 05:23:12;;;;;;;;;;;;;;;17.18;55.12;98623.81;4949642;28;19981;-88
2022/07/13 05:25:43;;;;;;;;;;;;;;;17.06;55.67;98621.00;4998530;28;20014;-86
2022/07/13 05:28:10;;;;;;;;;;;;;;;17.03;56.00;98622.47;4957879;28;20021;-83
2022/07/13 05:30:38;;;;;;;;;;;;;;;17.18;55.86;98624.59;4952839;28;19948;-88
2022/07/13 05:33:08;;;;;;;;;;;;;;;17.33;55.40;98625.91;4989663;28;19981;-82
2022/07/13 05:35:37;;;;;;;;;;;;;;;17.43;55.14;98617.25;4955657;28;20029;-78
2022/07/13 05:38:05;;;;;;;;;;;;;;;17.62;54.63;98627.69;4977188;28;19948;-78
2022/07/13 05:40:34;;;;;;;;;;;;;;;17.72;54.57;98632.78;4967719;28;19977;-78
2022/07/13 05:43:01;;;;;;;;;;;;;;;17.69;54.46;98633.47;4996465;28;19926;-77
2022/07/13 05:45:29;;;;;;;;;;;;;;;17.94;54.05;98633.50;4970199;28;19962;-78
2022/07/13 05:47:57;;;;;;;;;;;;;;;18.03;53.79;98632.25;4991460;28;19926;-77
2022/07/13 05:50:25;;;;;;;;;;;;;;;18.20;53.42;98636.72;4986813;28;19940;-77
2022/07/13 05:52:54;;;;;;;;;;;;;;;18.35;52.64;98639.94;4972491;28;19937;-77
2022/07/13 05:55:26;;;;;;;;;;;;;;;18.44;52.48;98640.63;4956290;28;19933;-79
2022/07/13 05:57:54;;;;;;;;;;;;;;;18.43;52.11;98650.03;4993817;28;20421;-80
2022/07/13 06:00:22;;;;;;;;;;;;;;;18.23;52.71;98655.31;4974940;28;20075;-79
2022/07/13 06:02:49;;;;;;;;;;;;;;;18.26;52.95;98657.34;4989851;28;19932;-77
2022/07/13 06:05:18;;;;;;;;;;;;;;;18.29;52.94;98656.69;4979413;28;20036;-78
2022/07/13 06:07:47;;;;;;;;;;;;;;;18.36;52.75;98656.09;4978458;28;19929;-78
2022/07/13 06:10:16;;;;;;;;;;;;;;;18.38;52.21;98659.34;4986308;28;19992;-78
2022/07/13 06:12:44;;;;;;;;;;;;;;;18.47;52.07;98656.44;4991568;28;19933;-78
2022/07/13 06:18:07;;;;;;;;;;;;;;;18.78;52.14;98645.66;4989940;28;20051;-78
2022/07/13 06:20:36;;;;;;;;;;;;;;;18.79;53.50;98644.50;4992071;28;20001;-77
2022/07/13 06:23:14;;;;;;;;;;;;;;;18.76;52.98;98647.16;4980867;28;20026;-78
2022/07/13 06:25:46;;;;;;;;;;;;;;;18.87;53.62;98661.25;4991144;28;20376;-78
2022/07/13 06:28:16;;;;;;;;;;;;;;;18.86;52.67;98654.16;4992527;28;20230;-78
2022/07/13 06:30:43;;;;;;;;;;;;;;;18.84;51.81;98658.03;4988967;28;19961;-78
2022/07/13 06:33:11;;;;;;;;;;;;;;;18.96;51.38;98657.22;4992100;28;20230;-78
2022/07/13 06:35:39;;;;;;;;;;;;;;;18.92;52.97;98669.25;4992144;28;19926;-78
2022/07/13 06:38:08;;;;;;;;;;;;;;;19.00;54.23;98660.06;4995879;28;19949;-78
2022/07/13 06:40:36;;;;;;;;;;;;;;;19.00;53.85;98660.06;4994792;28;19930;-78
2022/07/13 06:43:05;;;;;;;;;;;;;;;19.06;53.44;98667.72;4998997;28;19940;-78
2022/07/13 06:45:33;;;;;;;;;;;;;;;19.17;51.37;98664.47;4990748;28;19937;-78
2022/07/13 06:48:00;;;;;;;;;;;;;;;19.18;51.46;98660.59;4992535;28;20296;-78
2022/07/13 06:50:29;;;;;;;;;;;;;;;19.24;52.20;98665.50;4991295;28;19982;-77
2022/07/13 06:52:57;;;;;;;;;;;;;;;19.14;51.66;98677.00;4992504;28;19932;-78
2022/07/13 06:55:26;;;;;;;;;;;;;;;19.37;50.82;98661.53;4969683;28;19926;-78
2022/07/13 06:57:57;;;;;;;;;;;;;;;19.51;51.85;98665.84;4993031;28;19980;-78
2022/07/13 07:00:26;;;;;;;;;;;;;;;19.56;52.17;98663.63;4986073;28;19933;-78
2022/07/13 07:02:53;;;;;;;;;;;;;;;19.73;49.87;98668.03;4989955;28;19926;-78
2022/07/13 07:05:23;;;;;;;;;;;;;;;19.62;49.66;98661.44;4989563;28;20012;-79
2022/07/13 07:07:52;;;;;;;;;;;;;;;19.69;51.16;98652.56;4986665;28;19930;-78
2022/07/13 07:10:20;;;;;;;;;;;;;;;19.73;50.05;98645.19;4989079;28;19929;-78
2022/07/13 07:12:53;;;;;;;;;;;;;;;19.68;50.59;98646.25;4990792;28;19926;-77
2022/07/13 07:15:24;;;;;;;;;;;;;;;19.72;51.12;98638.06;4989226;28;19936;-78
2022/07/13 07:17:53;;;;;;;;;;;;;;;19.78;51.07;98645.72;4990987;28;19926;-78
2022/07/13 07:20:22;;;;;;;;;;;;;;;19.86;51.26;98641.19;4990221;28;19926;-78
2022/07/13 07:22:50;;;;;;;;;;;;;;;19.99;51.00;98639.97;4984650;28;20351;-78
2022/07/13 07:25:19;;;;;;;;;;;;;;;20.14;50.36;98632.84;4989753;28;19979;-78
2022/07/13 07:27:47;;;;;;;;;;;;;;;20.15;51.90;98640.75;4991566;28;19930;-78
2022/07/13 07:30:15;;;;;;;;;;;;;;;20.24;49.47;98632.31;4988630;28;20004;-78
2022/07/13 07:32:43;;;;;;;;;;;;;;;20.29;50.60;98632.00;4984154;28;19976;-77
2022/07/13 07:35:12;;;;;;;;;;;;;;;20.39;49.00;98628.69;4994012;28;20037;-77
2022/07/13 07:37:40;;;;;;;;;;;;;;;20.46;50.11;98624.53;4987828;28;20277;-78
2022/07/13 07:40:09;;;;;;;;;;;;;;;20.51;49.95;98624.28;4991065;28;19955;-78
2022/07/13 07:42:36;;;;;;;;;;;;;;;20.56;49.26;98611.00;4999611;28;19945;-78
2022/07/13 07:45:05;;;;;;;;;;;;;;;20.78;47.26;98609.50;4997587;28;19926;-77
2022/07/13 07:47:33;;;;;;;;;;;;;;;20.87;47.34;98607.31;4990217;28;20272;-77
2022/07/13 07:50:05;;;;;;;;;;;;;;;20.87;48.62;98606.50;4988089;28;20072;-76
2022/07/13 07:52:34;;;;;;;;;;;;;;;20.99;47.58;98600.06;5002345;28;20409;-75
2022/07/13 07:55:20;;;;;;;;;;;;;;;21.12;46.91;98594.00;4990550;28;19929;-75
2022/07/13 07:57:49;;;;;;;;;;;;;;;21.22;46.05;98608.41;5009505;28;19976;-76
2022/07/13 08:00:17;;;;;;;;;;;;;;;21.24;45.61;98601.34;5007409;28;19936;-75
2022/07/13 08:03:11;;;;;;;;;;;;;;;21.31;46.47;98601.53;4990924;28;20024;-75
2022/07/13 08:05:41;;;;;;;;;;;;;;;21.35;45.41;98602.38;4998672;28;20374;-76
2022/07/13 08:08:10;;;;;;;;;;;;;;;21.48;45.53;98605.00;5001037;28;19930;-75
2022/07/13 08:10:38;;;;;;;;;;;;;;;21.61;44.96;98604.44;5005430;28;19980;-75
2022/07/13 08:13:05;;;;;;;;;;;;;;;21.76;44.55;98599.97;4993213;28;19930;-76
2022/07/13 08:15:34;;;;;;;;;;;;;;;21.75;44.59;98601.16;4990997;28;19926;-74
2022/07/13 08:18:05;;;;;;;;;;;;;;;21.87;44.21;98598.19;4992919;28;19962;-74
2022/07/13 08:20:33;;;;;;;;;;;;;;;22.03;44.04;98597.25;4993578;28;19980;-74
2022/07/13 08:23:01;;;;;;;;;;;;;;;22.15;43.47;98600.63;4988828;28;19936;-74
2022/07/13 08:25:30;;;;;;;;;;;;;;;22.21;43.47;98599.19;4993242;28;19972;-75
2022/07/13 08:27:58;;;;;;;;;;;;;;;22.40;42.97;98595.50;4991083;28;19980;-75
2022/07/13 08:30:26;;;;;;;;;;;;;;;22.39;43.20;98593.91;4994399;28;19929;-75
2022/07/13 08:32:54;;;;;;;;;;;;;;;22.43;42.82;98599.50;4993740;28;20391;-75
2022/07/13 08:40:54;;;;;;;;;;;;;;;22.61;42.87;98588.66;4991649;28;19934;-74
2022/07/13 08:43:22;;;;;;;;;;;;;;;22.49;42.95;98586.94;4992416;28;19949;-75
2022/07/13 08:45:50;;;;;;;;;;;;;;;22.82;41.99;98588.94;4997018;28;20001;-75
2022/07/13 08:48:19;;;;;;;;;;;;;;;22.79;42.32;98578.59;4993647;28;20031;-76
2022/07/13 08:50:47;;;;;;;;;;;;;;;22.60;42.51;98584.31;4993525;28;20028;-76
2022/07/13 08:53:17;;;;;;;;;;;;;;;22.51;42.88;98592.88;4994223;28;19930;-83
2022/07/13 08:55:44;;;;;;;;;;;;;;;22.60;42.59;98587.88;4992866;28;19937;-74
2022/07/13 08:58:18;;;;;;;;;;;;;;;22.81;42.66;98592.91;4977501;28;19926;-75
2022/07/13 09:00:46;;;;;;;;;;;;;;;23.05;41.98;98588.06;4993218;28;19930;-74
2022/07/13 09:03:14;;;;;;;;;;;;;;;23.18;41.79;98586.66;4975483;28;19984;-75
2022/07/13 09:05:42;;;;;;;;;;;;;;;23.19;41.96;98594.59;4971548;28;19974;-75
2022/07/13 09:08:10;;;;;;;;;;;;;;;23.05;42.24;98594.41;4985286;28;20423;-75
2022/07/13 09:10:51;;;;;;;;;;;;;;;23.07;42.10;98597.63;4985275;28;19934;-75
2022/07/13 09:13:34;;;;;;;;;;;;;;;23.09;42.10;98591.69;4975895;28;20070;-75
2022/07/13 09:16:26;;;;;;;;;;;;;;;23.22;41.89;98595.78;4976889;28;19997;-75
2022/07/13 09:18:56;;;;;;;;;;;;;;;23.17;41.70;98594.16;4989563;28;19929;-75
2022/07/13 09:21:30;;;;;;;;;;;;;;;23.14;41.66;98591.34;4968970;28;19934;-75
2022/07/13 09:23:58;;;;;;;;;;;;;;;23.27;41.41;98592.66;4977040;28;20001;-75
2022/07/13 09:26:31;;;;;;;;;;;;;;;23.33;41.12;98585.63;4976903;28;20045;-75
2022/07/13 09:29:00;;;;;;;;;;;;;;;23.04;41.71;98595.59;4976544;28;20248;-75
2022/07/13 09:31:28;;;;;;;;;;;;;;;23.26;41.68;98607.72;4971202;28;20388;-75
2022/07/13 09:33:57;;;;;;;;;;;;;;;23.42;40.72;98582.53;4990161;28;19926;-75
2022/07/13 09:36:26;;;;;;;;;;;;;;;23.59;41.53;98581.91;4973722;28;19926;-75
2022/07/13 09:38:59;;;;;;;;;;;;;;;23.80;41.21;98573.03;4987013;28;19936;-74
2022/07/13 09:41:27;;;;;;;;;;;;;;;22.47;39.94;98307.63;5005057;28;20004;-74
2022/07/13 09:46:57;;;;;;;;;;;;;;;23.73;39.63;98570.19;4980192;28;19933;-75
2022/07/13 09:49:31;;;;;;;;;;;;;;;24.07;39.28;98562.53;4983631;28;19973;-75
2022/07/13 09:52:00;;;;;;;;;;;;;;;23.64;40.58;98572.47;4970663;28;20004;-75
2022/07/13 09:54:53;;;;;;;;;;;;;;;23.65;40.26;98571.28;4976546;28;19930;-75
2022/07/13 09:57:22;;;;;;;;;;;;;;;23.48;39.38;98567.94;4978399;28;19930;-75
2022/07/13 09:59:51;;;;;;;;;;;;;;;23.55;39.00;98569.22;4985264;28;20250;-75
2022/07/13 10:02:19;;;;;;;;;;;;;;;23.58;40.16;98562.88;4960388;28;19927;-75
2022/07/13 10:04:48;;;;;;;;;;;;;;;23.75;38.47;98565.06;4974632;28;20379;-74
2022/07/13 10:07:44;;;;;;;;;;;;;;;24.66;37.12;98563.34;4985618;28;19942;-76
2022/07/13 10:10:13;;;;;;;;;;;;;;;23.99;39.13;98572.00;4985486;28;19926;-75
2022/07/13 10:12:41;;;;;;;;;;;;;;;23.95;39.92;98566.41;4969588;28;19988;-76
2022/07/13 10:15:09;;;;;;;;;;;;;;;24.24;38.77;98561.09;4966503;28;19930;-76
2022/07/13 10:17:39;;;;;;;;;;;;;;;23.91;40.90;98571.13;4969687;28;19926;-76
2022/07/13 10:20:10;;;;;;;;;;;;;;;24.11;40.87;98573.69;4984666;28;19930;-76
2022/07/13 10:22:39;;;;;;;;;;;;;;;23.82;40.68;98573.47;4969075;28;19937;-76
2022/07/13 10:25:08;;;;;;;;;;;;;;;23.80;40.93;98567.47;4970675;28;19930;-76
2022/07/13 10:27:36;;;;;;;;;;;;;;;24.08;40.15;98568.91;4985535;28;19926;-77
2022/07/13 10:30:05;;;;;;;;;;;;;;;24.18;36.98;98566.22;4970423;28;19926;-77
2022/07/13 10:32:33;;;;;;;;;;;;;;;24.97;33.57;98559.09;4971531;28;19926;-75
2022/07/13 10:35:02;;;;;;;;;;;;;;;24.58;36.93;98563.69;4954031;28;19985;-75
2022/07/13 10:37:32;;;;;;;;;;;;;;;25.18;33.40;98561.19;4953132;28;19934;-75
2022/07/13 10:40:10;;;;;;;;;;;;;;;25.03;36.02;98551.97;4971872;28;19984;-75
2022/07/13 10:42:57;;;;;;;;;;;;;;;24.60;35.95;98556.56;4965691;28;20419;-74
2022/07/13 10:45:43;;;;;;;;;;;;;;;24.21;36.98;98562.66;4954080;28;19926;-75
2022/07/13 10:48:34;;;;;;;;;;;;;;;24.18;38.90;98562.63;4983170;28;19926;-75
2022/07/13 10:51:10;;;;;;;;;;;;;;;24.36;35.04;98560.81;4949564;28;21230;-75
2022/07/13 10:53:56;;;;;;;;;;;;;;;24.31;35.78;98566.69;4976199;28;20617;-75
2022/07/13 10:56:25;;;;;;;;;;;;;;;24.27;38.48;98554.75;4953938;28;19989;-75
2022/07/13 10:58:54;;;;;;;;;;;;;;;24.39;35.65;98545.31;4986146;28;19948;-75
2022/07/13 11:01:50;;;;;;;;;;;;;;;24.33;38.44;98541.28;4970207;28;19930;-75
2022/07/13 11:04:19;;;;;;;;;;;;;;;24.97;32.96;98547.19;4970547;28;20003;-75
2022/07/13 11:07:07;;;;;;;;;;;;;;;25.39;32.68;98531.84;4969793;28;20004;-75
2022/07/13 11:10:14;;;;;;;;;;;;;;;25.45;33.87;98521.91;4982201;28;20338;-75
2022/07/13 11:12:58;;;;;;;;;;;;;;;24.37;38.04;98528.28;4971254;28;20408;-75
2022/07/13 11:15:28;;;;;;;;;;;;;;;24.58;37.21;98527.59;4968386;28;19930;-76
2022/07/13 11:18:00;;;;;;;;;;;;;;;24.97;35.34;98530.50;4971955;28;20284;-75
2022/07/13 11:20:36;;;;;;;;;;;;;;;25.22;35.76;98516.72;4950207;28;19930;-75
2022/07/13 11:25:50;;;;;;;;;;;;;;;24.66;34.35;98518.91;4988021;28;19930;-75
2022/07/13 11:28:26;;;;;;;;;;;;;;;24.82;33.79;98510.22;4990640;28;19934;-74
2022/07/13 11:30:54;;;;;;;;;;;;;;;24.55;37.12;98509.69;4976474;28;19926;-75
2022/07/13 11:33:22;;;;;;;;;;;;;;;24.71;36.63;98517.72;4976269;28;19933;-76
2022/07/13 11:35:50;;;;;;;;;;;;;;;24.41;36.54;98510.44;4963967;28;19948;-76
2022/07/13 11:38:19;;;;;;;;;;;;;;;25.23;34.60;98498.84;4975314;28;19930;-75
2022/07/13 11:40:47;;;;;;;;;;;;;;;25.71;31.39;98504.03;4975490;28;19954;-76
2022/07/13 11:43:15;;;;;;;;;;;;;;;26.00;31.74;98500.09;4975043;28;19926;-75
2022/07/13 11:45:44;;;;;;;;;;;;;;;25.16;34.95;98496.06;4960959;28;19930;-76
2022/07/13 11:48:16;;;;;;;;;;;;;;;25.52;33.67;98494.91;4993981;28;19934;-75
2022/07/13 11:50:48;;;;;;;;;;;;;;;26.35;31.18;98492.84;4978790;28;20025;-75
2022/07/13 11:53:26;;;;;;;;;;;;;;;25.90;32.66;98497.31;4978080;28;20028;-75
2022/07/13 11:55:56;;;;;;;;;;;;;;;26.24;28.62;98486.50;4976502;28;20012;-75
2022/07/13 11:58:25;;;;;;;;;;;;;;;26.18;27.98;98488.91;4990341;28;19934;-75
2022/07/13 12:00:54;;;;;;;;;;;;;;;25.26;30.68;98476.59;4975337;28;20037;-76
2022/07/13 12:03:25;;;;;;;;;;;;;;;25.38;33.53;98488.53;4970719;28;20253;-76
2022/07/13 12:05:53;;;;;;;;;;;;;;;25.73;30.76;98482.19;4976108;28;19926;-75
2022/07/13 12:08:21;;;;;;;;;;;;;;;25.73;32.20;98476.63;4982698;28;20296;-75
2022/07/13 12:10:49;;;;;;;;;;;;;;;25.87;29.91;98471.06;4978076;28;19936;-76
2022/07/13 12:13:17;;;;;;;;;;;;;;;25.63;32.90;98474.66;5009928;28;19953;-75
2022/07/13 12:15:45;;;;;;;;;;;;;;;25.49;32.07;98472.66;4991903;28;19926;-75
2022/07/13 12:18:14;;;;;;;;;;;;;;;26.28;28.86;98468.59;4994350;28;19933;-75
2022/07/13 12:20:42;;;;;;;;;;;;;;;26.33;28.74;98465.38;4995933;28;19926;-76
2022/07/13 12:23:10;;;;;;;;;;;;;;;25.73;31.89;98466.28;4978582;28;20347;-76
2022/07/13 12:25:39;;;;;;;;;;;;;;;25.77;30.25;98472.66;4996116;28;19929;-76
2022/07/13 12:28:08;;;;;;;;;;;;;;;26.04;28.81;98464.66;4994610;28;19992;-76
2022/07/13 12:31:02;;;;;;;;;;;;;;;25.60;32.59;98460.31;4994610;28;20050;-76
2022/07/13 12:33:44;;;;;;;;;;;;;;;25.40;33.38;98458.31;4994746;28;19973;-76
2022/07/13 12:36:12;;;;;;;;;;;;;;;25.33;32.77;98450.78;4995545;28;19979;-76
2022/07/13 12:38:55;;;;;;;;;;;;;;;25.50;31.96;98452.75;4991591;28;19934;-76
2022/07/13 12:41:26;;;;;;;;;;;;;;;25.22;33.08;98452.75;4989770;28;19926;-75
2022/07/13 12:43:56;;;;;;;;;;;;;;;24.56;35.33;98453.78;4991068;28;19926;-75
2022/07/13 12:46:23;;;;;;;;;;;;;;;25.12;32.02;98445.19;5003915;28;19933;-74
2022/07/13 12:49:03;;;;;;;;;;;;;;;25.26;33.76;98443.25;5000756;28;20393;-75
2022/07/13 12:51:50;;;;;;;;;;;;;;;25.71;31.47;98448.38;4992108;28;19937;-75
2022/07/13 12:54:19;;;;;;;;;;;;;;;25.80;31.04;98449.59;5006302;28;19978;-74
2022/07/13 12:56:52;;;;;;;;;;;;;;;25.95;32.63;98438.47;4990027;28;19968;-74
2022/07/13 12:59:21;;;;;;;;;;;;;;;25.99;29.73;98444.78;4992320;28;20361;-74
2022/07/13 13:01:49;;;;;;;;;;;;;;;26.42;26.80;98437.16;4981526;28;19926;-74
2022/07/13 13:04:19;;;;;;;;;;;;;;;26.40;30.04;98433.91;4992711;28;20440;-74
2022/07/13 13:06:47;;;;;;;;;;;;;;;25.78;32.13;98432.53;4992031;28;19926;-74
2022/07/13 13:12:08;;;;;;;;;;;;;;;25.81;29.86;98423.34;4975317;28;20326;-75
2022/07/13 13:14:36;;;;;;;;;;;;;;;26.25;26.36;98419.25;4991675;28;19926;-75
2022/07/13 13:17:06;;;;;;;;;;;;;;;25.95;30.48;98418.97;4991593;28;20016;-75
2022/07/13 13:19:36;;;;;;;;;;;;;;;25.48;29.55;98418.22;4989132;28;20376;-75
2022/07/13 13:22:24;;;;;;;;;;;;;;;25.60;31.26;98410.22;4991669;28;19926;-75
2022/07/13 13:24:52;;;;;;;;;;;;;;;25.24;32.53;98400.31;4992189;28;19925;-75
2022/07/13 13:27:20;;;;;;;;;;;;;;;25.29;32.72;98403.50;4986914;28;20017;-75